sensor_id;sensor_type;location;lat;lon;timestamp;pressure;altitude;pressure_sealevel;temperature;humidity
33554;BME280;19885;42.208;24.952;2022-08-26T00:01:41;99140.72;;;24.97;61.98
33554;BME280;19885;42.208;24.952;2022-08-26T00:04:08;99168.34;;;25.10;62.47
33554;BME280;19885;42.208;24.952;2022-08-26T00:06:34;99171.97;;;25.09;62.85
33554;BME280;19885;42.208;24.952;2022-08-26T00:09:00;99166.75;;;25.08;62.70
33554;BME280;19885;42.208;24.952;2022-08-26T00:11:26;99158.94;;;25.05;62.36
33554;BME280;19885;42.208;24.952;2022-08-26T00:13:53;99160.63;;;25.06;62.23
33554;BME280;19885;42.208;24.952;2022-08-26T00:16:19;99111.59;;;24.66;62.51
33554;BME280;19885;42.208;24.952;2022-08-26T00:18:44;99105.53;;;24.50;63.36
33554;BME280;19885;42.208;24.952;2022-08-26T00:21:12;99148.09;;;24.79;62.60
33554;BME280;19885;42.208;24.952;2022-08-26T00:23:37;99159.63;;;24.80;63.41
33554;BME280;19885;42.208;24.952;2022-08-26T00:26:04;99172.84;;;24.82;63.12
33554;BME280;19885;42.208;24.952;2022-08-26T00:28:30;99163.22;;;24.79;62.76
33554;BME280;19885;42.208;24.952;2022-08-26T00:30:57;99160.78;;;24.76;63.38
33554;BME280;19885;42.208;24.952;2022-08-26T00:33:22;99159.94;;;24.74;63.46
33554;BME280;19885;42.208;24.952;2022-08-26T00:35:49;99147.00;;;24.68;63.36
33554;BME280;19885;42.208;24.952;2022-08-26T00:38:15;99148.91;;;24.66;63.66
33554;BME280;19885;42.208;24.952;2022-08-26T00:40:49;99139.41;;;24.62;63.50
33554;BME280;19885;42.208;24.952;2022-08-26T00:43:16;99155.66;;;24.71;62.56
33554;BME280;19885;42.208;24.952;2022-08-26T00:48:21;99145.31;;;24.81;61.46
33554;BME280;19885;42.208;24.952;2022-08-26T00:51:00;99145.78;;;24.88;61.35
33554;BME280;19885;42.208;24.952;2022-08-26T00:53:30;99150.19;;;24.89;61.25
33554;BME280;19885;42.208;24.952;2022-08-26T00:58:31;99130.00;;;24.85;61.01
33554;BME280;19885;42.208;24.952;2022-08-26T01:00:58;99146.47;;;24.91;60.78
33554;BME280;19885;42.208;24.952;2022-08-26T01:03:26;99134.28;;;24.87;61.22
33554;BME280;19885;42.208;24.952;2022-08-26T01:05:54;99129.16;;;24.84;61.47
33554;BME280;19885;42.208;24.952;2022-08-26T01:08:22;99135.63;;;24.94;61.42
33554;BME280;19885;42.208;24.952;2022-08-26T01:10:48;99140.09;;;24.94;61.11
33554;BME280;19885;42.208;24.952;2022-08-26T01:13:14;99134.84;;;24.92;61.04
33554;BME280;19885;42.208;24.952;2022-08-26T01:15:48;99076.28;;;24.62;60.84
33554;BME280;19885;42.208;24.952;2022-08-26T01:18:15;99126.81;;;24.92;60.46
33554;BME280;19885;42.208;24.952;2022-08-26T01:21:15;99129.41;;;24.94;59.86
33554;BME280;19885;42.208;24.952;2022-08-26T01:23:46;99076.38;;;24.61;59.88
33554;BME280;19885;42.208;24.952;2022-08-26T01:26:16;99127.03;;;24.89;59.09
33554;BME280;19885;42.208;24.952;2022-08-26T01:28:42;99132.94;;;24.94;60.17
33554;BME280;19885;42.208;24.952;2022-08-26T01:31:12;99077.34;;;24.60;58.88
33554;BME280;19885;42.208;24.952;2022-08-26T01:33:45;99121.16;;;24.84;59.42
33554;BME280;19885;42.208;24.952;2022-08-26T01:36:12;99098.31;;;24.80;60.03
33554;BME280;19885;42.208;24.952;2022-08-26T01:38:39;99110.47;;;24.84;58.89
33554;BME280;19885;42.208;24.952;2022-08-26T01:41:06;99137.88;;;25.00;59.48
33554;BME280;19885;42.208;24.952;2022-08-26T01:43:33;99136.16;;;24.99;58.63
33554;BME280;19885;42.208;24.952;2022-08-26T01:46:00;99111.69;;;24.93;58.64
33554;BME280;19885;42.208;24.952;2022-08-26T01:48:29;99137.00;;;25.14;58.54
33554;BME280;19885;42.208;24.952;2022-08-26T01:50:57;99129.28;;;25.09;57.80
33554;BME280;19885;42.208;24.952;2022-08-26T01:53:24;99132.72;;;25.11;57.96
33554;BME280;19885;42.208;24.952;2022-08-26T01:55:54;99132.81;;;25.10;57.99
33554;BME280;19885;42.208;24.952;2022-08-26T01:58:34;99117.50;;;24.99;58.50
33554;BME280;19885;42.208;24.952;2022-08-26T02:01:01;99123.88;;;24.97;58.88
33554;BME280;19885;42.208;24.952;2022-08-26T02:03:27;99138.00;;;24.99;59.05
33554;BME280;19885;42.208;24.952;2022-08-26T02:05:57;99135.81;;;24.91;59.45
33554;BME280;19885;42.208;24.952;2022-08-26T02:08:44;99144.56;;;24.79;60.73
33554;BME280;19885;42.208;24.952;2022-08-26T02:11:11;99140.53;;;24.44;61.31
33554;BME280;19885;42.208;24.952;2022-08-26T02:13:39;99144.75;;;24.62;61.82
33554;BME280;19885;42.208;24.952;2022-08-26T02:16:07;99142.53;;;24.54;61.61
33554;BME280;19885;42.208;24.952;2022-08-26T02:18:36;99148.44;;;24.45;62.73
33554;BME280;19885;42.208;24.952;2022-08-26T02:21:03;99129.75;;;24.31;62.93
33554;BME280;19885;42.208;24.952;2022-08-26T02:23:29;99125.84;;;24.23;63.22
33554;BME280;19885;42.208;24.952;2022-08-26T02:26:02;99145.16;;;24.26;63.16
33554;BME280;19885;42.208;24.952;2022-08-26T02:28:34;99147.94;;;24.39;63.40
33554;BME280;19885;42.208;24.952;2022-08-26T02:31:02;99137.69;;;24.33;63.52
33554;BME280;19885;42.208;24.952;2022-08-26T02:33:28;99132.16;;;24.36;63.75
33554;BME280;19885;42.208;24.952;2022-08-26T02:35:53;99134.06;;;24.34;63.45
33554;BME280;19885;42.208;24.952;2022-08-26T02:38:19;99121.19;;;24.26;63.67
33554;BME280;19885;42.208;24.952;2022-08-26T02:40:47;99129.28;;;24.25;63.37
33554;BME280;19885;42.208;24.952;2022-08-26T02:43:13;99132.34;;;24.33;63.24
33554;BME280;19885;42.208;24.952;2022-08-26T02:45:40;99127.69;;;24.36;62.46
33554;BME280;19885;42.208;24.952;2022-08-26T02:48:13;99131.78;;;24.42;62.46
33554;BME280;19885;42.208;24.952;2022-08-26T02:50:39;99079.41;;;24.13;61.68
33554;BME280;19885;42.208;24.952;2022-08-26T02:53:07;99125.50;;;24.43;61.90
33554;BME280;19885;42.208;24.952;2022-08-26T02:55:33;99129.03;;;24.43;62.02
33554;BME280;19885;42.208;24.952;2022-08-26T02:57:59;99125.38;;;24.44;61.41
33554;BME280;19885;42.208;24.952;2022-08-26T03:00:27;99135.22;;;24.44;61.47
33554;BME280;19885;42.208;24.952;2022-08-26T03:02:53;99135.22;;;24.44;60.52
33554;BME280;19885;42.208;24.952;2022-08-26T03:05:19;99113.47;;;24.22;60.86
33554;BME280;19885;42.208;24.952;2022-08-26T03:07:46;99139.19;;;24.37;60.96
33554;BME280;19885;42.208;24.952;2022-08-26T03:10:13;99138.03;;;24.27;61.93
33554;BME280;19885;42.208;24.952;2022-08-26T03:12:39;99135.03;;;24.33;61.33
33554;BME280;19885;42.208;24.952;2022-08-26T03:15:08;99118.81;;;24.22;61.52
33554;BME280;19885;42.208;24.952;2022-08-26T03:17:33;99140.31;;;24.19;62.72
33554;BME280;19885;42.208;24.952;2022-08-26T03:20:00;99126.78;;;24.22;61.87
33554;BME280;19885;42.208;24.952;2022-08-26T03:22:26;99103.75;;;24.06;61.45
33554;BME280;19885;42.208;24.952;2022-08-26T03:24:52;99132.91;;;24.24;62.07
33554;BME280;19885;42.208;24.952;2022-08-26T03:27:18;99113.09;;;24.14;61.91
33554;BME280;19885;42.208;24.952;2022-08-26T03:29:43;99098.97;;;23.97;62.29
33554;BME280;19885;42.208;24.952;2022-08-26T03:32:27;99119.97;;;24.02;62.83
33554;BME280;19885;42.208;24.952;2022-08-26T03:34:53;99125.22;;;24.03;63.15
33554;BME280;19885;42.208;24.952;2022-08-26T03:37:19;99127.03;;;24.03;62.16
33554;BME280;19885;42.208;24.952;2022-08-26T03:39:46;99122.75;;;24.00;62.10
33554;BME280;19885;42.208;24.952;2022-08-26T03:42:11;99118.56;;;23.96;61.42
33554;BME280;19885;42.208;24.952;2022-08-26T03:44:37;99129.78;;;24.01;61.86
33554;BME280;19885;42.208;24.952;2022-08-26T03:47:02;99136.94;;;24.01;62.29
33554;BME280;19885;42.208;24.952;2022-08-26T03:49:30;99134.72;;;23.93;61.60
33554;BME280;19885;42.208;24.952;2022-08-26T03:51:55;99114.72;;;23.86;61.49
33554;BME280;19885;42.208;24.952;2022-08-26T03:54:21;99134.34;;;23.99;61.26
33554;BME280;19885;42.208;24.952;2022-08-26T03:56:46;99134.03;;;24.05;61.06
33554;BME280;19885;42.208;24.952;2022-08-26T03:59:12;99137.25;;;24.10;60.21
33554;BME280;19885;42.208;24.952;2022-08-26T04:01:38;99134.56;;;24.10;60.60
33554;BME280;19885;42.208;24.952;2022-08-26T04:04:03;99104.97;;;24.01;60.55
33554;BME280;19885;42.208;24.952;2022-08-26T04:06:35;99130.81;;;24.15;60.23
33554;BME280;19885;42.208;24.952;2022-08-26T04:09:04;99134.13;;;24.18;59.39
33554;BME280;19885;42.208;24.952;2022-08-26T04:11:30;99141.19;;;24.19;59.64
33554;BME280;19885;42.208;24.952;2022-08-26T04:14:00;99127.59;;;24.24;59.64
33554;BME280;19885;42.208;24.952;2022-08-26T04:16:27;99140.53;;;24.30;59.92
33554;BME280;19885;42.208;24.952;2022-08-26T04:18:57;99136.13;;;24.29;59.83
33554;BME280;19885;42.208;24.952;2022-08-26T04:21:24;99152.31;;;24.40;60.30
33554;BME280;19885;42.208;24.952;2022-08-26T04:23:50;99155.66;;;24.43;59.15
33554;BME280;19885;42.208;24.952;2022-08-26T04:26:16;99154.63;;;24.46;59.50
33554;BME280;19885;42.208;24.952;2022-08-26T04:28:43;99130.25;;;24.24;59.25
33554;BME280;19885;42.208;24.952;2022-08-26T04:31:13;99146.50;;;24.19;59.37
33554;BME280;19885;42.208;24.952;2022-08-26T04:33:48;99144.06;;;24.30;59.06
33554;BME280;19885;42.208;24.952;2022-08-26T04:36:14;99147.94;;;24.39;59.69
33554;BME280;19885;42.208;24.952;2022-08-26T04:38:39;99138.44;;;24.35;58.47
33554;BME280;19885;42.208;24.952;2022-08-26T04:41:08;99149.38;;;24.44;59.58
33554;BME280;19885;42.208;24.952;2022-08-26T04:43:37;99156.91;;;24.52;58.68
33554;BME280;19885;42.208;24.952;2022-08-26T04:46:04;99153.84;;;24.58;58.17
33554;BME280;19885;42.208;24.952;2022-08-26T04:48:32;99147.69;;;24.57;58.58
33554;BME280;19885;42.208;24.952;2022-08-26T04:50:58;99161.66;;;24.61;58.80
33554;BME280;19885;42.208;24.952;2022-08-26T04:53:24;99152.34;;;24.54;58.30
33554;BME280;19885;42.208;24.952;2022-08-26T04:55:51;99159.38;;;24.55;59.16
33554;BME280;19885;42.208;24.952;2022-08-26T04:58:18;99151.19;;;24.44;58.92
33554;BME280;19885;42.208;24.952;2022-08-26T05:00:45;99145.50;;;24.50;59.08
33554;BME280;19885;42.208;24.952;2022-08-26T05:03:12;99152.34;;;24.54;58.70
33554;BME280;19885;42.208;24.952;2022-08-26T05:05:42;99152.53;;;24.51;58.69
33554;BME280;19885;42.208;24.952;2022-08-26T05:08:12;99158.53;;;24.54;58.57
33554;BME280;19885;42.208;24.952;2022-08-26T05:10:41;99152.53;;;24.51;59.34
33554;BME280;19885;42.208;24.952;2022-08-26T05:13:08;99166.41;;;24.56;59.60
33554;BME280;19885;42.208;24.952;2022-08-26T05:15:35;99170.78;;;24.43;59.53
33554;BME280;19885;42.208;24.952;2022-08-26T05:18:04;99162.41;;;24.35;59.76
33554;BME280;19885;42.208;24.952;2022-08-26T05:20:31;99167.66;;;24.50;59.40
33554;BME280;19885;42.208;24.952;2022-08-26T05:23:00;99174.22;;;24.59;59.00
33554;BME280;19885;42.208;24.952;2022-08-26T05:25:28;99173.28;;;24.60;59.65
33554;BME280;19885;42.208;24.952;2022-08-26T05:27:54;99171.09;;;24.66;59.74
33554;BME280;19885;42.208;24.952;2022-08-26T05:30:20;99180.09;;;24.79;58.99
33554;BME280;19885;42.208;24.952;2022-08-26T05:32:49;99133.59;;;24.55;59.77
33554;BME280;19885;42.208;24.952;2022-08-26T05:35:16;99178.47;;;24.91;58.99
33554;BME280;19885;42.208;24.952;2022-08-26T05:37:42;99168.56;;;24.93;59.48
33554;BME280;19885;42.208;24.952;2022-08-26T05:40:08;99186.47;;;25.05;59.21
33554;BME280;19885;42.208;24.952;2022-08-26T05:42:34;99183.78;;;25.05;59.13
33554;BME280;19885;42.208;24.952;2022-08-26T05:45:00;99189.66;;;25.10;57.55
33554;BME280;19885;42.208;24.952;2022-08-26T05:47:25;99141.72;;;24.82;59.06
33554;BME280;19885;42.208;24.952;2022-08-26T05:49:51;99194.63;;;25.16;58.07
33554;BME280;19885;42.208;24.952;2022-08-26T05:52:17;99187.69;;;25.14;58.85
33554;BME280;19885;42.208;24.952;2022-08-26T05:54:43;99186.22;;;25.22;58.52
33554;BME280;19885;42.208;24.952;2022-08-26T05:57:08;99168.59;;;25.20;58.14
33554;BME280;19885;42.208;24.952;2022-08-26T05:59:37;99186.31;;;25.35;57.32
33554;BME280;19885;42.208;24.952;2022-08-26T06:02:03;99191.94;;;25.44;57.07
33554;BME280;19885;42.208;24.952;2022-08-26T06:04:29;99199.94;;;25.44;56.59
33554;BME280;19885;42.208;24.952;2022-08-26T06:06:55;99205.09;;;25.47;57.92
33554;BME280;19885;42.208;24.952;2022-08-26T06:09:21;99203.16;;;25.49;57.89
33554;BME280;19885;42.208;24.952;2022-08-26T06:11:47;99207.16;;;25.57;56.74
33554;BME280;19885;42.208;24.952;2022-08-26T06:14:12;99203.56;;;25.58;57.09
33554;BME280;19885;42.208;24.952;2022-08-26T06:16:40;99214.56;;;25.66;57.34
33554;BME280;19885;42.208;24.952;2022-08-26T06:19:08;99209.72;;;25.58;57.08
33554;BME280;19885;42.208;24.952;2022-08-26T06:21:36;99223.94;;;25.59;57.39
33554;BME280;19885;42.208;24.952;2022-08-26T06:24:06;99233.66;;;25.60;57.50
33554;BME280;19885;42.208;24.952;2022-08-26T06:26:53;99231.75;;;25.62;57.69
33554;BME280;19885;42.208;24.952;2022-08-26T06:29:20;99243.00;;;25.67;58.29
33554;BME280;19885;42.208;24.952;2022-08-26T06:31:47;99225.88;;;25.69;57.27
33554;BME280;19885;42.208;24.952;2022-08-26T06:34:13;99240.84;;;25.72;57.10
33554;BME280;19885;42.208;24.952;2022-08-26T06:36:41;99237.81;;;25.78;57.82
33554;BME280;19885;42.208;24.952;2022-08-26T06:39:08;99241.78;;;25.85;56.32
33554;BME280;19885;42.208;24.952;2022-08-26T06:41:36;99233.03;;;25.83;57.21
33554;BME280;19885;42.208;24.952;2022-08-26T06:44:03;99244.59;;;25.96;56.82
33554;BME280;19885;42.208;24.952;2022-08-26T06:46:29;99214.22;;;25.84;56.09
33554;BME280;19885;42.208;24.952;2022-08-26T06:48:55;99250.69;;;26.12;55.57
33554;BME280;19885;42.208;24.952;2022-08-26T06:51:33;99259.03;;;26.20;55.06
33554;BME280;19885;42.208;24.952;2022-08-26T06:54:01;99252.00;;;26.19;55.26
33554;BME280;19885;42.208;24.952;2022-08-26T06:56:33;99247.91;;;26.26;53.89
33554;BME280;19885;42.208;24.952;2022-08-26T06:58:58;99244.72;;;26.21;53.79
33554;BME280;19885;42.208;24.952;2022-08-26T07:01:28;99220.72;;;26.07;53.60
33554;BME280;19885;42.208;24.952;2022-08-26T07:03:56;99250.50;;;26.28;53.58
33554;BME280;19885;42.208;24.952;2022-08-26T07:06:24;99212.53;;;26.10;53.89
33554;BME280;19885;42.208;24.952;2022-08-26T07:08:51;99255.13;;;26.38;52.78
33554;BME280;19885;42.208;24.952;2022-08-26T07:11:18;99268.41;;;26.52;54.23
33554;BME280;19885;42.208;24.952;2022-08-26T07:13:49;99271.44;;;26.73;53.35
33554;BME280;19885;42.208;24.952;2022-08-26T07:16:15;99274.59;;;26.79;53.21
33554;BME280;19885;42.208;24.952;2022-08-26T07:18:42;99254.44;;;26.74;52.00
33554;BME280;19885;42.208;24.952;2022-08-26T07:21:10;99273.94;;;26.88;53.26
33554;BME280;19885;42.208;24.952;2022-08-26T07:23:37;99268.41;;;26.92;52.48
33554;BME280;19885;42.208;24.952;2022-08-26T07:26:07;99269.53;;;26.87;51.98
33554;BME280;19885;42.208;24.952;2022-08-26T07:28:33;99269.22;;;26.79;52.49
33554;BME280;19885;42.208;24.952;2022-08-26T07:31:06;99277.56;;;26.87;53.26
33554;BME280;19885;42.208;24.952;2022-08-26T07:33:33;99272.03;;;26.91;53.68
33554;BME280;19885;42.208;24.952;2022-08-26T07:35:59;99276.72;;;27.00;52.75
33554;BME280;19885;42.208;24.952;2022-08-26T07:38:24;99272.88;;;27.04;52.68
33554;BME280;19885;42.208;24.952;2022-08-26T07:40:50;99270.72;;;27.09;52.29
33554;BME280;19885;42.208;24.952;2022-08-26T07:43:16;99268.19;;;27.07;51.00
33554;BME280;19885;42.208;24.952;2022-08-26T07:45:43;99258.00;;;27.00;51.79
33554;BME280;19885;42.208;24.952;2022-08-26T07:48:09;99254.56;;;26.98;51.36
33554;BME280;19885;42.208;24.952;2022-08-26T07:50:34;99273.41;;;27.09;52.72
33554;BME280;19885;42.208;24.952;2022-08-26T07:53:01;99274.06;;;27.12;51.95
33554;BME280;19885;42.208;24.952;2022-08-26T07:55:27;99272.22;;;27.13;52.05
33554;BME280;19885;42.208;24.952;2022-08-26T07:57:53;99285.28;;;27.30;52.27
33554;BME280;19885;42.208;24.952;2022-08-26T08:00:19;99280.59;;;27.46;51.39
33554;BME280;19885;42.208;24.952;2022-08-26T08:02:44;99266.53;;;27.55;51.43
33554;BME280;19885;42.208;24.952;2022-08-26T08:05:12;99259.53;;;27.65;50.42
33554;BME280;19885;42.208;24.952;2022-08-26T08:07:38;99258.00;;;27.74;50.88
33554;BME280;19885;42.208;24.952;2022-08-26T08:10:05;99256.38;;;27.84;50.32
33554;BME280;19885;42.208;24.952;2022-08-26T08:12:31;99251.06;;;27.95;50.89
33554;BME280;19885;42.208;24.952;2022-08-26T08:14:57;99261.53;;;28.10;50.93
33554;BME280;19885;42.208;24.952;2022-08-26T08:17:22;99247.22;;;28.22;50.63
33554;BME280;19885;42.208;24.952;2022-08-26T08:19:48;99254.09;;;28.38;50.24
33554;BME280;19885;42.208;24.952;2022-08-26T08:22:15;99258.53;;;28.50;49.61
33554;BME280;19885;42.208;24.952;2022-08-26T08:24:41;99249.03;;;28.57;49.51
33554;BME280;19885;42.208;24.952;2022-08-26T08:27:06;99260.53;;;28.59;49.79
33554;BME280;19885;42.208;24.952;2022-08-26T08:29:35;99256.41;;;28.66;49.54
33554;BME280;19885;42.208;24.952;2022-08-26T08:32:01;99259.47;;;28.72;48.42
33554;BME280;19885;42.208;24.952;2022-08-26T08:34:28;99261.72;;;28.89;49.03
33554;BME280;19885;42.208;24.952;2022-08-26T08:36:54;99255.50;;;29.00;46.51
33554;BME280;19885;42.208;24.952;2022-08-26T08:39:20;99258.91;;;29.02;46.02
33554;BME280;19885;42.208;24.952;2022-08-26T08:44:36;99264.44;;;29.12;45.54
33554;BME280;19885;42.208;24.952;2022-08-26T08:47:31;99257.22;;;29.12;48.17
33554;BME280;19885;42.208;24.952;2022-08-26T08:50:02;99240.72;;;28.94;47.94
33554;BME280;19885;42.208;24.952;2022-08-26T08:52:34;99256.47;;;28.99;48.69
33554;BME280;19885;42.208;24.952;2022-08-26T08:55:02;99250.38;;;29.08;49.52
33554;BME280;19885;42.208;24.952;2022-08-26T08:58:05;99253.78;;;28.99;45.46
33554;BME280;19885;42.208;24.952;2022-08-26T09:00:41;99259.41;;;28.96;47.29
33554;BME280;19885;42.208;24.952;2022-08-26T09:03:29;99261.00;;;28.99;45.59
33554;BME280;19885;42.208;24.952;2022-08-26T09:05:59;99255.13;;;29.05;46.35
33554;BME280;19885;42.208;24.952;2022-08-26T09:08:30;99260.66;;;29.14;45.58
33554;BME280;19885;42.208;24.952;2022-08-26T09:10:58;99255.38;;;29.13;45.28
33554;BME280;19885;42.208;24.952;2022-08-26T09:13:28;99256.03;;;29.27;45.69
33554;BME280;19885;42.208;24.952;2022-08-26T09:21:14;99246.94;;;29.73;41.02
33554;BME280;19885;42.208;24.952;2022-08-26T09:23:41;99255.75;;;29.86;39.12
33554;BME280;19885;42.208;24.952;2022-08-26T09:28:54;99258.78;;;29.92;39.87
33554;BME280;19885;42.208;24.952;2022-08-26T09:31:25;99264.78;;;29.96;39.98
33554;BME280;19885;42.208;24.952;2022-08-26T09:36:39;99275.31;;;30.19;40.50
33554;BME280;19885;42.208;24.952;2022-08-26T09:44:30;99268.72;;;30.55;40.09
33554;BME280;19885;42.208;24.952;2022-08-26T09:47:04;99265.44;;;30.72;41.24
33554;BME280;19885;42.208;24.952;2022-08-26T09:49:38;99269.31;;;30.79;40.96
33554;BME280;19885;42.208;24.952;2022-08-26T09:54:29;99259.28;;;31.02;39.32
33554;BME280;19885;42.208;24.952;2022-08-26T09:57:13;99252.06;;;31.02;39.07
33554;BME280;19885;42.208;24.952;2022-08-26T09:59:39;99255.66;;;30.92;36.54
33554;BME280;19885;42.208;24.952;2022-08-26T10:02:35;99266.84;;;30.87;36.94
33554;BME280;19885;42.208;24.952;2022-08-26T10:05:05;99266.72;;;30.89;35.88
33554;BME280;19885;42.208;24.952;2022-08-26T10:07:48;99280.97;;;31.00;37.18
33554;BME280;19885;42.208;24.952;2022-08-26T10:13:11;99274.91;;;31.08;36.20
33554;BME280;19885;42.208;24.952;2022-08-26T10:16:10;99278.78;;;31.15;34.96
33554;BME280;19885;42.208;24.952;2022-08-26T10:18:41;99273.72;;;31.52;34.32
33554;BME280;19885;42.208;24.952;2022-08-26T10:21:13;99272.41;;;31.46;33.28
33554;BME280;19885;42.208;24.952;2022-08-26T10:23:45;99254.03;;;31.00;33.06
33554;BME280;19885;42.208;24.952;2022-08-26T10:26:39;99229.09;;;30.98;34.09
33554;BME280;19885;42.208;24.952;2022-08-26T10:29:11;99268.47;;;30.99;33.21
33554;BME280;19885;42.208;24.952;2022-08-26T10:31:41;99281.78;;;30.80;36.06
33554;BME280;19885;42.208;24.952;2022-08-26T10:34:10;99284.00;;;30.55;34.80
33554;BME280;19885;42.208;24.952;2022-08-26T10:36:46;99270.84;;;30.09;34.30
33554;BME280;19885;42.208;24.952;2022-08-26T10:42:03;99268.44;;;29.95;35.57
33554;BME280;19885;42.208;24.952;2022-08-26T10:44:33;99273.09;;;29.82;36.16
33554;BME280;19885;42.208;24.952;2022-08-26T10:47:23;99277.50;;;29.60;35.79
33554;BME280;19885;42.208;24.952;2022-08-26T10:49:51;99264.31;;;29.69;36.61
33554;BME280;19885;42.208;24.952;2022-08-26T10:52:47;99255.78;;;29.52;36.22
33554;BME280;19885;42.208;24.952;2022-08-26T10:55:21;99268.13;;;29.44;37.89
33554;BME280;19885;42.208;24.952;2022-08-26T10:57:59;99271.63;;;29.55;37.64
33554;BME280;19885;42.208;24.952;2022-08-26T11:00:36;99275.56;;;29.51;37.62
33554;BME280;19885;42.208;24.952;2022-08-26T11:08:57;99262.81;;;29.64;38.19
33554;BME280;19885;42.208;24.952;2022-08-26T11:11:44;99263.69;;;29.65;37.84
33554;BME280;19885;42.208;24.952;2022-08-26T11:16:50;99241.19;;;29.88;37.32
33554;BME280;19885;42.208;24.952;2022-08-26T11:22:12;99248.78;;;29.72;37.54
33554;BME280;19885;42.208;24.952;2022-08-26T11:29:59;99248.53;;;29.86;36.95
33554;BME280;19885;42.208;24.952;2022-08-26T11:32:49;99200.19;;;29.75;34.14
33554;BME280;19885;42.208;24.952;2022-08-26T11:40:15;99221.34;;;30.11;37.47
33554;BME280;19885;42.208;24.952;2022-08-26T11:42:45;99229.94;;;30.37;37.31
33554;BME280;19885;42.208;24.952;2022-08-26T11:45:36;99214.13;;;30.64;36.41
33554;BME280;19885;42.208;24.952;2022-08-26T11:50:53;99218.31;;;30.98;35.03
33554;BME280;19885;42.208;24.952;2022-08-26T11:53:19;99221.59;;;30.81;35.65
33554;BME280;19885;42.208;24.952;2022-08-26T11:55:46;99234.13;;;30.71;36.11
33554;BME280;19885;42.208;24.952;2022-08-26T11:58:13;99189.88;;;30.23;36.13
33554;BME280;19885;42.208;24.952;2022-08-26T12:00:50;99180.78;;;30.03;36.81
33554;BME280;19885;42.208;24.952;2022-08-26T12:03:22;99224.16;;;30.30;37.37
33554;BME280;19885;42.208;24.952;2022-08-26T12:05:51;99215.72;;;30.03;36.47
33554;BME280;19885;42.208;24.952;2022-08-26T12:08:24;99207.22;;;29.98;36.43
33554;BME280;19885;42.208;24.952;2022-08-26T12:11:10;99214.22;;;29.79;38.30
33554;BME280;19885;42.208;24.952;2022-08-26T12:13:38;99211.28;;;29.82;37.76
33554;BME280;19885;42.208;24.952;2022-08-26T12:16:05;99196.38;;;29.89;37.47
33554;BME280;19885;42.208;24.952;2022-08-26T12:18:33;99205.41;;;29.88;37.51
33554;BME280;19885;42.208;24.952;2022-08-26T12:21:09;99206.22;;;29.99;37.30
33554;BME280;19885;42.208;24.952;2022-08-26T12:23:47;99203.66;;;29.98;36.73
33554;BME280;19885;42.208;24.952;2022-08-26T12:26:28;99202.66;;;29.99;37.63
33554;BME280;19885;42.208;24.952;2022-08-26T12:31:32;99193.25;;;30.04;37.36
33554;BME280;19885;42.208;24.952;2022-08-26T12:33:59;99189.84;;;30.02;37.44
33554;BME280;19885;42.208;24.952;2022-08-26T12:36:32;99186.34;;;29.91;36.06
33554;BME280;19885;42.208;24.952;2022-08-26T12:39:07;99185.03;;;30.06;35.64
33554;BME280;19885;42.208;24.952;2022-08-26T12:41:56;99110.03;;;29.82;36.23
33554;BME280;19885;42.208;24.952;2022-08-26T12:44:42;99099.13;;;29.84;37.13
33554;BME280;19885;42.208;24.952;2022-08-26T12:47:32;99177.81;;;30.38;36.36
33554;BME280;19885;42.208;24.952;2022-08-26T12:50:05;99174.34;;;30.47;35.81
33554;BME280;19885;42.208;24.952;2022-08-26T12:55:42;99183.53;;;30.65;34.97
33554;BME280;19885;42.208;24.952;2022-08-26T12:58:36;99162.63;;;30.78;33.66
33554;BME280;19885;42.208;24.952;2022-08-26T13:06:25;99089.16;;;30.87;29.87
33554;BME280;19885;42.208;24.952;2022-08-26T13:14:18;99141.72;;;31.71;30.86
33554;BME280;19885;42.208;24.952;2022-08-26T13:16:44;99112.06;;;31.71;32.38
33554;BME280;19885;42.208;24.952;2022-08-26T13:19:31;99141.47;;;32.03;30.10
33554;BME280;19885;42.208;24.952;2022-08-26T13:21:58;99086.81;;;31.53;32.35
33554;BME280;19885;42.208;24.952;2022-08-26T13:24:32;99085.50;;;31.47;34.66
33554;BME280;19885;42.208;24.952;2022-08-26T13:26:59;99154.47;;;31.79;32.25
33554;BME280;19885;42.208;24.952;2022-08-26T13:29:25;99164.94;;;31.62;33.14
33554;BME280;19885;42.208;24.952;2022-08-26T13:31:51;99166.09;;;31.50;30.26
33554;BME280;19885;42.208;24.952;2022-08-26T13:34:19;99149.00;;;31.40;31.31
33554;BME280;19885;42.208;24.952;2022-08-26T13:36:47;99151.06;;;31.57;31.99
33554;BME280;19885;42.208;24.952;2022-08-26T13:39:14;99123.78;;;31.51;31.65
33554;BME280;19885;42.208;24.952;2022-08-26T13:41:40;99137.28;;;31.60;32.88
33554;BME280;19885;42.208;24.952;2022-08-26T13:44:08;99152.19;;;31.64;30.11
33554;BME280;19885;42.208;24.952;2022-08-26T13:46:34;99151.19;;;31.56;31.38
33554;BME280;19885;42.208;24.952;2022-08-26T13:49:00;99149.41;;;31.36;30.76
33554;BME280;19885;42.208;24.952;2022-08-26T13:51:27;99161.53;;;31.51;31.68
33554;BME280;19885;42.208;24.952;2022-08-26T13:53:53;99146.97;;;31.23;30.43
33554;BME280;19885;42.208;24.952;2022-08-26T13:56:19;99157.22;;;31.39;33.25
33554;BME280;19885;42.208;24.952;2022-08-26T13:58:46;99132.72;;;31.51;32.91
33554;BME280;19885;42.208;24.952;2022-08-26T14:01:12;99157.72;;;31.63;34.83
33554;BME280;19885;42.208;24.952;2022-08-26T14:03:38;99152.06;;;30.86;33.58
33554;BME280;19885;42.208;24.952;2022-08-26T14:06:04;99143.47;;;30.72;32.59
33554;BME280;19885;42.208;24.952;2022-08-26T14:08:29;99133.97;;;30.68;36.01
33554;BME280;19885;42.208;24.952;2022-08-26T14:10:56;99157.69;;;30.83;33.64
33554;BME280;19885;42.208;24.952;2022-08-26T14:13:22;99152.44;;;31.02;34.57
33554;BME280;19885;42.208;24.952;2022-08-26T14:15:47;99145.28;;;30.92;33.43